Arion, IA

3:16 AM CST on February 10, 2016 (GMT -0600)
denison airport | | Change Station
CLOSE
Current Station
Personal Weather Station
Location: Denison, IA
Elevation: 1273 ft
Nearby Weather Stations

Elev 1273 ft 41.99 °N, 95.38 °W | Updated 4 minutes ago

Overcast
Overcast
15.8 °F
Feels Like 16 °F
N
0.0
Wind Variable Wind from ESE

Today
High -- | Low -- °F
--% Chance of Precip.
Yesterday
High -- | Low -- °F
Precip. -- in
Pressure 30.10 in
Visibility 10.0 miles
Clouds Overcast 8500 ft
Windchill 16 °F
Dew Point 14 °F
Humidity 92%
Rainfall 0.00 in
Snow Depth Not available.
7:24 AM 5:47 PM
Waxing Crescent, 4% visible
METAR KDNS 100855Z AUTO 00000KT 10SM OVC085 M08/M11 A3010 RMK AO2
Pressure 30.10 in
Visibility 10.0 miles
Clouds Overcast 8500 ft
Windchill 16 °F
Dew Point 14 °F
Humidity 92%
Rainfall 0.00 in
Snow Depth Not available.
7:24 AM 5:47 PM
Waxing Crescent, 4% visible
METAR KDNS 100855Z AUTO 00000KT 10SM OVC085 M08/M11 A3010 RMK AO2

10-Day Weather Forecast

Almanac

Astronomy

Feb. 10, 2016 Rise Set
Actual Time
Civil Twilight
Nautical Twilight
Astronomical Twilight
Moon
Length of Visible Light
Length of Day
Tomorrow will be .
, % of the Moon is Illuminated

Today's Extremes

State Highs State Lows

Community

WunderPhotos

Upload Photos

1,891,826 photos uploaded!

WunderBlog® & News

Nearby

Air Quality

  Air Quality AQ Index Pollutant
Not available.

Snow Depth

Station Depth Elevation

Earthquake Activity

City Distance Mag. Time & Date
Minimum magnitude displayed is 2.5.

Coastal Water Temperatures

Place Temperature

Stations

Nearby Weather Stations

Station Location Temp. Windchill Dew Point Humidity Wind Precip. Elev Updated Type
                   

Watches & Warnings

There are currently no watches in effect.